sensor_id;sensor_type;location;lat;lon;timestamp;pressure;altitude;pressure_sealevel;temperature;humidity
10587;BME280;5341;47.606;7.576;2024-01-30T00:01:38;100244.69;;;7.94;65.83
10587;BME280;5341;47.606;7.576;2024-01-30T00:04:07;100237.81;;;7.91;65.76
10587;BME280;5341;47.606;7.576;2024-01-30T00:06:39;100241.44;;;7.90;65.88
10587;BME280;5341;47.606;7.576;2024-01-30T00:09:07;100238.06;;;7.88;65.70
10587;BME280;5341;47.606;7.576;2024-01-30T00:11:36;100240.00;;;7.86;65.92
10587;BME280;5341;47.606;7.576;2024-01-30T00:14:03;100233.97;;;7.84;66.06
10587;BME280;5341;47.606;7.576;2024-01-30T00:16:32;100246.44;;;7.84;65.77
10587;BME280;5341;47.606;7.576;2024-01-30T00:19:00;100250.22;;;7.81;65.60
10587;BME280;5341;47.606;7.576;2024-01-30T00:21:28;100244.16;;;7.79;65.73
10587;BME280;5341;47.606;7.576;2024-01-30T00:23:58;100238.84;;;7.79;65.84
10587;BME280;5341;47.606;7.576;2024-01-30T00:26:26;100236.31;;;7.78;65.77
10587;BME280;5341;47.606;7.576;2024-01-30T00:28:53;100239.94;;;7.77;65.79
10587;BME280;5341;47.606;7.576;2024-01-30T00:31:22;100247.09;;;7.76;65.59
10587;BME280;5341;47.606;7.576;2024-01-30T00:33:51;100237.50;;;7.74;65.74
10587;BME280;5341;47.606;7.576;2024-01-30T00:36:19;100237.78;;;7.71;65.86
10587;BME280;5341;47.606;7.576;2024-01-30T00:38:46;100243.22;;;7.69;65.92
10587;BME280;5341;47.606;7.576;2024-01-30T00:41:14;100250.38;;;7.69;65.59
10587;BME280;5341;47.606;7.576;2024-01-30T00:43:41;100252.31;;;7.67;65.73
10587;BME280;5341;47.606;7.576;2024-01-30T00:46:09;100248.97;;;7.64;65.70
10587;BME280;5341;47.606;7.576;2024-01-30T00:48:37;100244.59;;;7.63;65.83
10587;BME280;5341;47.606;7.576;2024-01-30T00:51:06;100249.19;;;7.61;65.69
10587;BME280;5341;47.606;7.576;2024-01-30T00:53:33;100251.84;;;7.61;65.75
10587;BME280;5341;47.606;7.576;2024-01-30T00:56:01;100251.97;;;7.60;65.69
10587;BME280;5341;47.606;7.576;2024-01-30T00:58:29;100254.78;;;7.58;65.47
10587;BME280;5341;47.606;7.576;2024-01-30T01:00:58;100251.41;;;7.56;65.49
10587;BME280;5341;47.606;7.576;2024-01-30T01:03:26;100250.81;;;7.53;65.50
10587;BME280;5341;47.606;7.576;2024-01-30T01:05:54;100256.25;;;7.51;65.59
10587;BME280;5341;47.606;7.576;2024-01-30T01:08:23;100251.88;;;7.50;65.39
10587;BME280;5341;47.606;7.576;2024-01-30T01:10:51;100255.53;;;7.49;65.37
10587;BME280;5341;47.606;7.576;2024-01-30T01:13:19;100253.00;;;7.48;65.48
10587;BME280;5341;47.606;7.576;2024-01-30T01:15:47;100255.06;;;7.44;65.50
10587;BME280;5341;47.606;7.576;2024-01-30T01:18:14;100263.19;;;7.43;65.36
10587;BME280;5341;47.606;7.576;2024-01-30T01:20:42;100265.00;;;7.42;65.33
10587;BME280;5341;47.606;7.576;2024-01-30T01:23:09;100264.28;;;7.40;65.48
10587;BME280;5341;47.606;7.576;2024-01-30T01:25:38;100259.06;;;7.39;65.59
10587;BME280;5341;47.606;7.576;2024-01-30T01:28:06;100255.69;;;7.37;65.20
10587;BME280;5341;47.606;7.576;2024-01-30T01:30:33;100252.16;;;7.36;65.52
10587;BME280;5341;47.606;7.576;2024-01-30T01:33:01;100248.78;;;7.34;65.27
10587;BME280;5341;47.606;7.576;2024-01-30T01:35:29;100252.44;;;7.33;65.42
10587;BME280;5341;47.606;7.576;2024-01-30T01:37:56;100261.38;;;7.32;65.17
10587;BME280;5341;47.606;7.576;2024-01-30T01:40:28;100256.19;;;7.30;65.29
10587;BME280;5341;47.606;7.576;2024-01-30T01:43:03;100251.00;;;7.29;65.50
10587;BME280;5341;47.606;7.576;2024-01-30T01:45:31;100250.28;;;7.27;65.85
10587;BME280;5341;47.606;7.576;2024-01-30T01:47:58;100253.78;;;7.27;65.47
10587;BME280;5341;47.606;7.576;2024-01-30T01:50:26;100250.28;;;7.27;65.38
10587;BME280;5341;47.606;7.576;2024-01-30T01:56:42;100253.56;;;7.19;65.79
10587;BME280;5341;47.606;7.576;2024-01-30T01:59:12;100249.22;;;7.18;65.46
10587;BME280;5341;47.606;7.576;2024-01-30T02:01:40;100251.03;;;7.18;65.64
10587;BME280;5341;47.606;7.576;2024-01-30T02:04:09;100249.34;;;7.17;65.45
10587;BME280;5341;47.606;7.576;2024-01-30T02:06:36;100250.31;;;7.16;65.43
10587;BME280;5341;47.606;7.576;2024-01-30T10:19:35;100398.53;;;7.47;67.74
10587;BME280;5341;47.606;7.576;2024-01-30T10:25:51;100404.13;;;7.55;67.61
10587;BME280;5341;47.606;7.576;2024-01-30T10:28:18;100399.38;;;7.59;67.65
10587;BME280;5341;47.606;7.576;2024-01-30T10:30:57;100391.88;;;7.64;67.58
10587;BME280;5341;47.606;7.576;2024-01-30T10:33:25;100395.41;;;7.64;67.42
10587;BME280;5341;47.606;7.576;2024-01-30T10:36:00;100402.16;;;7.69;67.36
10587;BME280;5341;47.606;7.576;2024-01-30T10:38:30;100395.72;;;7.71;67.47
10587;BME280;5341;47.606;7.576;2024-01-30T10:40:59;100393.66;;;7.75;67.20
10587;BME280;5341;47.606;7.576;2024-01-30T10:43:31;100397.78;;;7.79;66.80
10587;BME280;5341;47.606;7.576;2024-01-30T10:46:10;100406.25;;;7.84;67.25
10587;BME280;5341;47.606;7.576;2024-01-30T10:48:42;100403.22;;;7.88;67.23
10587;BME280;5341;47.606;7.576;2024-01-30T10:51:13;100401.72;;;7.96;67.47
10587;BME280;5341;47.606;7.576;2024-01-30T10:53:43;100397.47;;;8.04;68.11
10587;BME280;5341;47.606;7.576;2024-01-30T10:56:13;100404.59;;;8.15;68.74
10587;BME280;5341;47.606;7.576;2024-01-30T10:58:41;100391.47;;;8.23;68.27
10587;BME280;5341;47.606;7.576;2024-01-30T11:01:09;100381.88;;;8.32;67.99
10587;BME280;5341;47.606;7.576;2024-01-30T11:03:37;100381.97;;;8.41;68.24
10587;BME280;5341;47.606;7.576;2024-01-30T11:06:05;100382.06;;;8.51;68.14
10587;BME280;5341;47.606;7.576;2024-01-30T11:08:39;100380.31;;;8.61;67.96
10587;BME280;5341;47.606;7.576;2024-01-30T11:11:09;100372.47;;;8.69;68.06
10587;BME280;5341;47.606;7.576;2024-01-30T11:13:37;100363.84;;;8.77;67.81
10587;BME280;5341;47.606;7.576;2024-01-30T11:16:05;100369.47;;;8.84;67.05
10587;BME280;5341;47.606;7.576;2024-01-30T11:18:38;100370.66;;;8.91;67.19
10587;BME280;5341;47.606;7.576;2024-01-30T11:21:06;100366.72;;;8.95;66.67
10587;BME280;5341;47.606;7.576;2024-01-30T11:23:34;100354.97;;;8.97;66.95
10587;BME280;5341;47.606;7.576;2024-01-30T11:26:05;100367.06;;;9.01;66.36
10587;BME280;5341;47.606;7.576;2024-01-30T11:28:33;100359.63;;;9.05;66.60
10587;BME280;5341;47.606;7.576;2024-01-30T11:31:05;100362.75;;;9.10;66.36
10587;BME280;5341;47.606;7.576;2024-01-30T11:33:34;100358.97;;;9.13;66.03
10587;BME280;5341;47.606;7.576;2024-01-30T11:36:02;100357.72;;;9.17;65.83
10587;BME280;5341;47.606;7.576;2024-01-30T11:38:32;100359.03;;;9.22;66.37
10587;BME280;5341;47.606;7.576;2024-01-30T11:41:00;100356.91;;;9.26;65.91
10587;BME280;5341;47.606;7.576;2024-01-30T11:43:31;100350.19;;;9.31;65.98
10587;BME280;5341;47.606;7.576;2024-01-30T11:45:59;100347.97;;;9.36;65.97
10587;BME280;5341;47.606;7.576;2024-01-30T11:48:27;100353.88;;;9.40;65.28
10587;BME280;5341;47.606;7.576;2024-01-30T11:50:55;100346.44;;;9.44;65.37
10587;BME280;5341;47.606;7.576;2024-01-30T11:53:23;100342.53;;;9.48;65.09
10587;BME280;5341;47.606;7.576;2024-01-30T11:55:50;100339.44;;;9.52;64.94
10587;BME280;5341;47.606;7.576;2024-01-30T11:58:18;100340.00;;;9.56;64.74
10587;BME280;5341;47.606;7.576;2024-01-30T12:00:54;100333.28;;;9.61;65.14
10587;BME280;5341;47.606;7.576;2024-01-30T12:03:23;100333.84;;;9.65;64.31
10587;BME280;5341;47.606;7.576;2024-01-30T12:05:55;100333.44;;;9.69;64.14
10587;BME280;5341;47.606;7.576;2024-01-30T12:08:24;100334.00;;;9.73;64.95
10587;BME280;5341;47.606;7.576;2024-01-30T12:11:00;100322.19;;;9.76;64.29
10587;BME280;5341;47.606;7.576;2024-01-30T12:13:31;100329.22;;;9.77;63.71
10587;BME280;5341;47.606;7.576;2024-01-30T12:16:04;100320.91;;;9.80;64.58
10587;BME280;5341;47.606;7.576;2024-01-30T12:18:32;100324.44;;;9.80;64.05
10587;BME280;5341;47.606;7.576;2024-01-30T12:21:00;100314.59;;;9.81;63.65
10587;BME280;5341;47.606;7.576;2024-01-30T12:23:28;100313.63;;;9.82;63.70
10587;BME280;5341;47.606;7.576;2024-01-30T12:25:55;100317.84;;;9.84;63.66
10587;BME280;5341;47.606;7.576;2024-01-30T12:28:23;100309.53;;;9.87;64.01
10587;BME280;5341;47.606;7.576;2024-01-30T12:30:55;100317.28;;;9.90;63.28
10587;BME280;5341;47.606;7.576;2024-01-30T12:33:26;100309.13;;;9.92;63.41
10587;BME280;5341;47.606;7.576;2024-01-30T12:35:55;100309.69;;;9.95;63.41
10587;BME280;5341;47.606;7.576;2024-01-30T12:38:23;100311.25;;;9.98;63.68
10587;BME280;5341;47.606;7.576;2024-01-30T12:40:54;100300.25;;;10.01;63.47
10587;BME280;5341;47.606;7.576;2024-01-30T12:43:22;100303.78;;;10.02;63.15
10587;BME280;5341;47.606;7.576;2024-01-30T12:45:52;100306.31;;;10.03;63.58
10587;BME280;5341;47.606;7.576;2024-01-30T12:48:21;100302.38;;;10.07;63.22
10587;BME280;5341;47.606;7.576;2024-01-30T12:50:50;100302.94;;;10.11;63.05
10587;BME280;5341;47.606;7.576;2024-01-30T12:53:18;100303.63;;;10.13;62.56
10587;BME280;5341;47.606;7.576;2024-01-30T12:55:45;100302.50;;;10.15;63.14
10587;BME280;5341;47.606;7.576;2024-01-30T12:58:13;100300.28;;;10.20;63.79
10587;BME280;5341;47.606;7.576;2024-01-30T13:00:41;100307.88;;;10.25;64.09
10587;BME280;5341;47.606;7.576;2024-01-30T13:03:09;100300.41;;;10.28;63.47
10587;BME280;5341;47.606;7.576;2024-01-30T13:05:37;100298.31;;;10.32;64.03
10587;BME280;5341;47.606;7.576;2024-01-30T13:08:07;100301.53;;;10.36;63.48
10587;BME280;5341;47.606;7.576;2024-01-30T13:10:35;100304.75;;;10.39;63.30
10587;BME280;5341;47.606;7.576;2024-01-30T13:13:03;100304.22;;;10.45;63.74
10587;BME280;5341;47.606;7.576;2024-01-30T13:15:31;100298.41;;;10.50;63.28
10587;BME280;5341;47.606;7.576;2024-01-30T13:17:58;100289.81;;;10.56;63.73
10587;BME280;5341;47.606;7.576;2024-01-30T13:20:26;100293.75;;;10.62;63.33
10587;BME280;5341;47.606;7.576;2024-01-30T13:22:54;100286.13;;;10.67;63.61
10587;BME280;5341;47.606;7.576;2024-01-30T13:25:23;100281.19;;;10.72;63.80
10587;BME280;5341;47.606;7.576;2024-01-30T13:27:50;100283.56;;;10.75;63.18
10587;BME280;5341;47.606;7.576;2024-01-30T13:30:18;100273.69;;;10.75;63.14
10587;BME280;5341;47.606;7.576;2024-01-30T13:32:46;100277.91;;;10.78;62.71
10587;BME280;5341;47.606;7.576;2024-01-30T13:35:14;100276.78;;;10.80;62.73
10587;BME280;5341;47.606;7.576;2024-01-30T13:37:42;100273.13;;;10.81;62.72
10587;BME280;5341;47.606;7.576;2024-01-30T13:40:10;100281.00;;;10.83;62.75
10587;BME280;5341;47.606;7.576;2024-01-30T13:42:40;100272.81;;;10.84;62.72
10587;BME280;5341;47.606;7.576;2024-01-30T13:45:07;100283.38;;;10.86;63.01
10587;BME280;5341;47.606;7.576;2024-01-30T13:47:36;100275.19;;;10.88;62.80
10587;BME280;5341;47.606;7.576;2024-01-30T13:50:04;100281.25;;;10.90;63.25
10587;BME280;5341;47.606;7.576;2024-01-30T13:52:33;100275.78;;;10.91;62.64
10587;BME280;5341;47.606;7.576;2024-01-30T13:55:01;100274.78;;;10.92;63.01
10587;BME280;5341;47.606;7.576;2024-01-30T13:57:29;100269.28;;;10.94;63.73
10587;BME280;5341;47.606;7.576;2024-01-30T14:00:02;100277.16;;;10.95;63.03
10587;BME280;5341;47.606;7.576;2024-01-30T14:02:38;100273.47;;;10.96;63.71
10587;BME280;5341;47.606;7.576;2024-01-30T14:05:07;100274.31;;;10.97;63.16
10587;BME280;5341;47.606;7.576;2024-01-30T14:07:35;100274.31;;;10.97;63.26
10587;BME280;5341;47.606;7.576;2024-01-30T14:10:03;100274.19;;;10.98;62.78
10587;BME280;5341;47.606;7.576;2024-01-30T14:12:32;100278.53;;;10.99;62.61
10587;BME280;5341;47.606;7.576;2024-01-30T14:14:59;100276.69;;;11.00;62.53
10587;BME280;5341;47.606;7.576;2024-01-30T14:17:28;100274.88;;;11.00;62.98
10587;BME280;5341;47.606;7.576;2024-01-30T14:19:56;100275.72;;;11.01;62.85
10587;BME280;5341;47.606;7.576;2024-01-30T14:22:23;100278.53;;;10.99;62.51
10587;BME280;5341;47.606;7.576;2024-01-30T14:24:51;100284.72;;;11.00;62.39
10587;BME280;5341;47.606;7.576;2024-01-30T14:27:19;100284.72;;;11.00;62.41
10587;BME280;5341;47.606;7.576;2024-01-30T14:29:47;100293.44;;;11.02;62.82
10587;BME280;5341;47.606;7.576;2024-01-30T14:32:15;100296.97;;;11.02;62.31
10587;BME280;5341;47.606;7.576;2024-01-30T14:34:44;100298.69;;;11.03;62.14
10587;BME280;5341;47.606;7.576;2024-01-30T14:37:12;100290.66;;;11.03;62.72
10587;BME280;5341;47.606;7.576;2024-01-30T14:39:39;100295.03;;;11.04;62.39
10587;BME280;5341;47.606;7.576;2024-01-30T14:42:08;100293.19;;;11.05;62.61
10587;BME280;5341;47.606;7.576;2024-01-30T14:44:36;100290.50;;;11.05;63.03
10587;BME280;5341;47.606;7.576;2024-01-30T14:47:06;100286.84;;;11.06;63.10
10587;BME280;5341;47.606;7.576;2024-01-30T14:49:35;100291.34;;;11.05;63.39
10587;BME280;5341;47.606;7.576;2024-01-30T14:52:05;100292.19;;;11.06;63.95
10587;BME280;5341;47.606;7.576;2024-01-30T14:54:37;100285.16;;;11.05;63.12
10587;BME280;5341;47.606;7.576;2024-01-30T14:57:05;100290.66;;;11.03;63.06
10587;BME280;5341;47.606;7.576;2024-01-30T14:59:32;100290.66;;;11.03;63.17
10587;BME280;5341;47.606;7.576;2024-01-30T15:02:00;100285.41;;;11.02;63.36
10587;BME280;5341;47.606;7.576;2024-01-30T15:04:28;100298.81;;;11.02;63.24
10587;BME280;5341;47.606;7.576;2024-01-30T15:06:56;100292.75;;;11.00;63.51
10587;BME280;5341;47.606;7.576;2024-01-30T15:09:25;100292.06;;;10.98;63.12
10587;BME280;5341;47.606;7.576;2024-01-30T15:11:53;100289.53;;;10.96;62.96
10587;BME280;5341;47.606;7.576;2024-01-30T15:14:21;100291.53;;;10.94;62.76
10587;BME280;5341;47.606;7.576;2024-01-30T15:16:48;100300.56;;;10.93;63.19
10587;BME280;5341;47.606;7.576;2024-01-30T15:19:16;100299.88;;;10.91;63.03
10587;BME280;5341;47.606;7.576;2024-01-30T15:21:44;100297.19;;;10.91;62.99
10587;BME280;5341;47.606;7.576;2024-01-30T15:24:11;100304.50;;;10.89;62.55
10587;BME280;5341;47.606;7.576;2024-01-30T15:26:43;100297.44;;;10.88;62.64
10587;BME280;5341;47.606;7.576;2024-01-30T15:29:11;100301.28;;;10.85;63.14
10587;BME280;5341;47.606;7.576;2024-01-30T15:31:38;100299.75;;;10.83;62.97
10587;BME280;5341;47.606;7.576;2024-01-30T15:34:06;100299.75;;;10.83;62.91
10587;BME280;5341;47.606;7.576;2024-01-30T15:36:34;100313.28;;;10.81;62.68
10587;BME280;5341;47.606;7.576;2024-01-30T15:39:01;100306.22;;;10.80;63.25
10587;BME280;5341;47.606;7.576;2024-01-30T15:41:31;100309.19;;;10.77;63.05
10587;BME280;5341;47.606;7.576;2024-01-30T15:44:01;100316.38;;;10.77;63.17
10587;BME280;5341;47.606;7.576;2024-01-30T15:46:29;100322.72;;;10.76;63.04
10587;BME280;5341;47.606;7.576;2024-01-30T15:48:56;100321.16;;;10.73;63.36
10587;BME280;5341;47.606;7.576;2024-01-30T15:51:25;100336.25;;;10.74;63.11
10587;BME280;5341;47.606;7.576;2024-01-30T15:53:53;100332.88;;;10.72;62.81
10587;BME280;5341;47.606;7.576;2024-01-30T15:56:21;100324.16;;;10.70;62.78
10587;BME280;5341;47.606;7.576;2024-01-30T15:58:48;100328.50;;;10.71;62.80
10587;BME280;5341;47.606;7.576;2024-01-30T16:01:19;100330.50;;;10.69;62.37
10587;BME280;5341;47.606;7.576;2024-01-30T16:03:47;100330.50;;;10.69;62.64
10587;BME280;5341;47.606;7.576;2024-01-30T16:06:14;100318.09;;;10.68;62.50
10587;BME280;5341;47.606;7.576;2024-01-30T16:08:42;100322.59;;;10.68;62.46
10587;BME280;5341;47.606;7.576;2024-01-30T16:11:10;100320.94;;;10.67;62.59
10587;BME280;5341;47.606;7.576;2024-01-30T16:13:39;100321.88;;;10.66;62.78
10587;BME280;5341;47.606;7.576;2024-01-30T16:16:08;100329.06;;;10.65;62.54
10587;BME280;5341;47.606;7.576;2024-01-30T16:18:37;100330.06;;;10.64;62.61
10587;BME280;5341;47.606;7.576;2024-01-30T16:21:05;100330.34;;;10.61;62.18
10587;BME280;5341;47.606;7.576;2024-01-30T16:23:34;100336.69;;;10.60;62.65
10587;BME280;5341;47.606;7.576;2024-01-30T16:26:02;100342.03;;;10.60;63.09
10587;BME280;5341;47.606;7.576;2024-01-30T16:28:29;100336.00;;;10.58;62.85
10587;BME280;5341;47.606;7.576;2024-01-30T16:30:59;100339.81;;;10.55;62.89
10587;BME280;5341;47.606;7.576;2024-01-30T16:33:28;100336.41;;;10.53;62.82
10587;BME280;5341;47.606;7.576;2024-01-30T16:35:57;100343.59;;;10.53;62.74
10587;BME280;5341;47.606;7.576;2024-01-30T16:38:24;100343.59;;;10.53;62.70
10587;BME280;5341;47.606;7.576;2024-01-30T16:40:52;100344.59;;;10.52;62.66
10587;BME280;5341;47.606;7.576;2024-01-30T16:43:19;100340.22;;;10.51;62.59
10587;BME280;5341;47.606;7.576;2024-01-30T16:45:47;100343.88;;;10.50;63.16
10587;BME280;5341;47.606;7.576;2024-01-30T16:48:14;100342.19;;;10.49;63.18
10587;BME280;5341;47.606;7.576;2024-01-30T16:50:44;100350.22;;;10.49;62.76
10587;BME280;5341;47.606;7.576;2024-01-30T16:53:13;100358.41;;;10.47;62.83
10587;BME280;5341;47.606;7.576;2024-01-30T16:55:40;100350.53;;;10.46;62.99
10587;BME280;5341;47.606;7.576;2024-01-30T16:58:08;100354.19;;;10.45;63.34
10587;BME280;5341;47.606;7.576;2024-01-30T17:00:37;100354.31;;;10.43;63.59
10587;BME280;5341;47.606;7.576;2024-01-30T17:03:06;100368.69;;;10.42;63.38
10587;BME280;5341;47.606;7.576;2024-01-30T17:05:34;100364.28;;;10.41;63.14
10587;BME280;5341;47.606;7.576;2024-01-30T17:08:01;100367.13;;;10.40;63.13
10587;BME280;5341;47.606;7.576;2024-01-30T17:10:30;100373.44;;;10.39;63.42
10587;BME280;5341;47.606;7.576;2024-01-30T17:12:58;100366.41;;;10.38;63.42
10587;BME280;5341;47.606;7.576;2024-01-30T17:15:26;100365.56;;;10.37;63.57
10587;BME280;5341;47.606;7.576;2024-01-30T17:17:53;100372.91;;;10.35;63.17
10587;BME280;5341;47.606;7.576;2024-01-30T17:20:21;100372.06;;;10.35;63.47
10587;BME280;5341;47.606;7.576;2024-01-30T17:22:49;100373.03;;;10.34;63.82
10587;BME280;5341;47.606;7.576;2024-01-30T17:25:16;100383.75;;;10.34;63.40
10587;BME280;5341;47.606;7.576;2024-01-30T17:27:45;100377.69;;;10.32;63.40
10587;BME280;5341;47.606;7.576;2024-01-30T17:30:13;100381.34;;;10.31;63.87
10587;BME280;5341;47.606;7.576;2024-01-30T17:32:41;100384.88;;;10.31;63.63
10587;BME280;5341;47.606;7.576;2024-01-30T17:35:09;100388.53;;;10.30;63.27
10587;BME280;5341;47.606;7.576;2024-01-30T17:37:36;100382.47;;;10.28;63.71
10587;BME280;5341;47.606;7.576;2024-01-30T17:40:06;100391.63;;;10.25;64.12
10587;BME280;5341;47.606;7.576;2024-01-30T17:42:34;100393.59;;;10.23;64.56
10587;BME280;5341;47.606;7.576;2024-01-30T17:45:06;100396.41;;;10.22;64.17
10587;BME280;5341;47.606;7.576;2024-01-30T17:47:34;100393.16;;;10.18;64.53
10587;BME280;5341;47.606;7.576;2024-01-30T17:50:02;100391.56;;;10.16;65.15
10587;BME280;5341;47.606;7.576;2024-01-30T17:52:30;100389.19;;;10.13;64.89
10587;BME280;5341;47.606;7.576;2024-01-30T17:54:57;100387.63;;;10.10;65.47
10587;BME280;5341;47.606;7.576;2024-01-30T17:57:24;100394.13;;;10.08;65.44
10587;BME280;5341;47.606;7.576;2024-01-30T17:59:52;100397.78;;;10.07;66.02
10587;BME280;5341;47.606;7.576;2024-01-30T18:02:21;100395.50;;;10.02;65.74
10587;BME280;5341;47.606;7.576;2024-01-30T18:04:49;100400.97;;;10.01;66.19
10587;BME280;5341;47.606;7.576;2024-01-30T18:07:17;100399.44;;;9.98;65.78
10587;BME280;5341;47.606;7.576;2024-01-30T18:09:44;100403.25;;;9.95;66.08
10587;BME280;5341;47.606;7.576;2024-01-30T18:12:12;100397.19;;;9.93;66.30
10587;BME280;5341;47.606;7.576;2024-01-30T18:14:40;100403.63;;;9.91;66.11
10587;BME280;5341;47.606;7.576;2024-01-30T18:17:10;100401.25;;;9.88;66.07
10587;BME280;5341;47.606;7.576;2024-01-30T18:19:42;100407.72;;;9.85;66.31
10587;BME280;5341;47.606;7.576;2024-01-30T18:22:10;100413.19;;;9.84;66.60
10587;BME280;5341;47.606;7.576;2024-01-30T18:24:40;100399.13;;;9.82;66.00
10587;BME280;5341;47.606;7.576;2024-01-30T18:27:08;100404.59;;;9.80;66.15
10587;BME280;5341;47.606;7.576;2024-01-30T18:29:36;100409.94;;;9.80;66.63
10587;BME280;5341;47.606;7.576;2024-01-30T18:32:04;100415.41;;;9.79;66.62
10587;BME280;5341;47.606;7.576;2024-01-30T18:34:32;100414.56;;;9.78;66.42
10587;BME280;5341;47.606;7.576;2024-01-30T18:37:01;100411.19;;;9.76;67.06
10587;BME280;5341;47.606;7.576;2024-01-30T18:39:30;100418.38;;;9.76;66.50
10587;BME280;5341;47.606;7.576;2024-01-30T18:41:57;100416.69;;;9.75;67.01
10587;BME280;5341;47.606;7.576;2024-01-30T18:44:24;100416.69;;;9.75;67.21
10587;BME280;5341;47.606;7.576;2024-01-30T18:46:51;100417.53;;;9.75;66.97
10587;BME280;5341;47.606;7.576;2024-01-30T18:49:19;100418.50;;;9.74;66.78
10587;BME280;5341;47.606;7.576;2024-01-30T18:51:48;100415.84;;;9.74;66.67
10587;BME280;5341;47.606;7.576;2024-01-30T18:54:19;100422.03;;;9.75;66.93
10587;BME280;5341;47.606;7.576;2024-01-30T18:56:47;100413.16;;;9.74;66.82
10587;BME280;5341;47.606;7.576;2024-01-30T18:59:14;100406.97;;;9.74;66.92
10587;BME280;5341;47.606;7.576;2024-01-30T19:01:44;100406.97;;;9.74;66.66
10587;BME280;5341;47.606;7.576;2024-01-30T19:04:11;100399.81;;;9.74;66.90
10587;BME280;5341;47.606;7.576;2024-01-30T19:06:39;100397.28;;;9.73;66.56
10587;BME280;5341;47.606;7.576;2024-01-30T19:09:07;100403.47;;;9.73;66.52
10587;BME280;5341;47.606;7.576;2024-01-30T19:11:36;100420.34;;;9.74;67.15
10587;BME280;5341;47.606;7.576;2024-01-30T19:14:03;100422.31;;;9.72;67.28
10587;BME280;5341;47.606;7.576;2024-01-30T19:16:32;100419.78;;;9.70;66.88
10587;BME280;5341;47.606;7.576;2024-01-30T19:19:00;100424.38;;;9.68;67.01
10587;BME280;5341;47.606;7.576;2024-01-30T19:21:32;100425.50;;;9.65;66.54
10587;BME280;5341;47.606;7.576;2024-01-30T19:23:59;100417.78;;;9.62;66.89
10587;BME280;5341;47.606;7.576;2024-01-30T19:26:27;100407.22;;;9.61;67.69
10587;BME280;5341;47.606;7.576;2024-01-30T19:28:56;100413.53;;;9.60;67.19
10587;BME280;5341;47.606;7.576;2024-01-30T19:31:23;100412.00;;;9.57;66.89
10587;BME280;5341;47.606;7.576;2024-01-30T19:33:53;100418.44;;;9.55;67.09
10587;BME280;5341;47.606;7.576;2024-01-30T19:36:21;100422.09;;;9.54;67.14
10587;BME280;5341;47.606;7.576;2024-01-30T19:38:49;100432.06;;;9.52;67.32
10587;BME280;5341;47.606;7.576;2024-01-30T19:41:16;100431.34;;;9.50;67.27
10587;BME280;5341;47.606;7.576;2024-01-30T19:43:44;100421.66;;;9.49;67.59
10587;BME280;5341;47.606;7.576;2024-01-30T19:46:13;100427.13;;;9.47;67.81
10587;BME280;5341;47.606;7.576;2024-01-30T19:48:40;100415.63;;;9.47;67.95
10587;BME280;5341;47.606;7.576;2024-01-30T19:51:08;100424.47;;;9.47;68.12
10587;BME280;5341;47.606;7.576;2024-01-30T19:53:36;100413.91;;;9.46;68.40
10587;BME280;5341;47.606;7.576;2024-01-30T19:56:04;100417.44;;;9.46;68.04
10587;BME280;5341;47.606;7.576;2024-01-30T19:58:32;100424.47;;;9.47;68.19
10587;BME280;5341;47.606;7.576;2024-01-30T20:01:01;100420.09;;;9.46;68.48
10587;BME280;5341;47.606;7.576;2024-01-30T20:03:30;100430.91;;;9.45;69.00
10587;BME280;5341;47.606;7.576;2024-01-30T20:05:59;100433.56;;;9.45;68.60
10587;BME280;5341;47.606;7.576;2024-01-30T20:08:26;100433.69;;;9.43;68.21
10587;BME280;5341;47.606;7.576;2024-01-30T20:10:58;100445.38;;;9.42;68.47
10587;BME280;5341;47.606;7.576;2024-01-30T20:13:26;100441.00;;;9.41;68.94
10587;BME280;5341;47.606;7.576;2024-01-30T20:15:54;100444.66;;;9.40;68.82
10587;BME280;5341;47.606;7.576;2024-01-30T20:18:22;100448.31;;;9.39;68.86
10587;BME280;5341;47.606;7.576;2024-01-30T20:20:51;100442.00;;;9.40;69.19
10587;BME280;5341;47.606;7.576;2024-01-30T20:23:18;100448.31;;;9.39;68.63
10587;BME280;5341;47.606;7.576;2024-01-30T20:25:46;100450.00;;;9.40;68.86
10587;BME280;5341;47.606;7.576;2024-01-30T20:28:13;100440.31;;;9.39;68.99
10587;BME280;5341;47.606;7.576;2024-01-30T20:30:42;100445.63;;;9.39;68.69
10587;BME280;5341;47.606;7.576;2024-01-30T20:33:12;100447.47;;;9.38;69.28
10587;BME280;5341;47.606;7.576;2024-01-30T20:35:41;100451.13;;;9.37;68.78
10587;BME280;5341;47.606;7.576;2024-01-30T20:38:10;100445.06;;;9.35;68.70
10587;BME280;5341;47.606;7.576;2024-01-30T20:40:38;100440.72;;;9.34;69.27
10587;BME280;5341;47.606;7.576;2024-01-30T20:43:05;100441.56;;;9.35;69.13
10587;BME280;5341;47.606;7.576;2024-01-30T20:45:33;100439.88;;;9.34;69.48
10587;BME280;5341;47.606;7.576;2024-01-30T20:48:00;100433.69;;;9.33;69.12
10587;BME280;5341;47.606;7.576;2024-01-30T20:50:29;100452.38;;;9.33;69.50
10587;BME280;5341;47.606;7.576;2024-01-30T20:52:57;100444.38;;;9.33;69.00
10587;BME280;5341;47.606;7.576;2024-01-30T20:55:26;100447.03;;;9.33;69.41
10587;BME280;5341;47.606;7.576;2024-01-30T20:57:54;100444.38;;;9.33;69.08
10587;BME280;5341;47.606;7.576;2024-01-30T21:00:22;100451.41;;;9.34;69.58
10587;BME280;5341;47.606;7.576;2024-01-30T21:02:49;100447.88;;;9.34;69.01
10587;BME280;5341;47.606;7.576;2024-01-30T21:05:17;100442.53;;;9.34;68.93
10587;BME280;5341;47.606;7.576;2024-01-30T21:07:49;100446.06;;;9.34;68.93
10587;BME280;5341;47.606;7.576;2024-01-30T21:10:16;100441.56;;;9.35;69.48
10587;BME280;5341;47.606;7.576;2024-01-30T21:12:45;100442.53;;;9.34;69.28
10587;BME280;5341;47.606;7.576;2024-01-30T21:15:13;100440.72;;;9.34;69.69
10587;BME280;5341;47.606;7.576;2024-01-30T21:17:41;100449.72;;;9.33;68.88
10587;BME280;5341;47.606;7.576;2024-01-30T21:20:09;100441.69;;;9.33;69.48
10587;BME280;5341;47.606;7.576;2024-01-30T21:22:37;100457.72;;;9.33;69.41
10587;BME280;5341;47.606;7.576;2024-01-30T21:25:05;100458.66;;;9.32;69.49
10587;BME280;5341;47.606;7.576;2024-01-30T21:27:33;100458.81;;;9.31;69.33
10587;BME280;5341;47.606;7.576;2024-01-30T21:30:06;100460.75;;;9.29;69.18
10587;BME280;5341;47.606;7.576;2024-01-30T21:32:35;100457.53;;;9.25;69.13